Mayport Ns (Adm David L. Mcdonald Field) Airport Mayport US
ICAO: KNRB
IATA: NRB
Category: Medium
Scheduled Services: No

Elevation: 15 ft
TransAlt. 18000 ft.

Airport Communications:
JACKSONVILLE APP/DEP:124.9
ATIS:26.86
GND:126.5
PTD:30.85
TWR:118.75

KNRB Zoom In..

If you have problems with the map follow the link
https://www.worldairports.se/pages/airport.php?
ICAO=KNRB

Runways:

(A) RW 05 length 8001 ft width 200 ft
---- / hdg 46

(B) RW 23 length 8001 ft width 200 ft
---- / hdg 226

Location; KNRB
Day. 18 / Time. 21.52 Zulu
* Altimeter: 30.10
* Temperature: 17° c. 62.6°f.
* Wind from: 140° Speed 09 kn.
Dewpoint: 12° c.
Visibility: 10 Statute Miles.
Clouds: Scattered 4000 ft.
Clouds: Overcast 23000 ft.

KNRB 182152Z 14009KT 10SM SCT040 OVC230 17/12 A3010 RMK AO2 SLP192 T01670117 $


Wind From 140°
Speed 09 kn.

 
 
jpsmedia.com for Web Design worldairports.se 2019   terms of use